createdAt,value
2018-10-11T00:00:26.358Z,65.57
2018-10-11T00:05:19.075Z,66.16
2018-10-11T00:10:11.774Z,65.60
2018-10-11T00:15:04.482Z,65.54
2018-10-11T00:19:57.163Z,65.70
2018-10-11T00:24:49.854Z,65.89
2018-10-11T00:29:42.473Z,66.65
2018-10-11T00:34:35.079Z,66.75
2018-10-11T00:39:27.727Z,66.48
2018-10-11T00:44:20.847Z,66.45
2018-10-11T00:49:13.476Z,66.71
2018-10-11T00:54:06.201Z,66.84
2018-10-11T00:58:58.904Z,67.30
2018-10-11T01:03:51.511Z,67.62
2018-10-11T01:08:44.178Z,67.61
2018-10-11T01:13:36.753Z,67.94
2018-10-11T01:18:29.748Z,67.10
2018-10-11T01:23:22.366Z,67.77
2018-10-11T01:28:14.992Z,67.55
2018-10-11T01:33:07.614Z,67.38
2018-10-11T01:38:00.231Z,67.41
2018-10-11T01:43:03.437Z,67.65
2018-10-11T01:47:56.626Z,68.53
2018-10-11T01:52:49.233Z,68.50
2018-10-11T01:57:41.910Z,68.18
2018-10-11T02:02:34.493Z,68.78
2018-10-11T02:07:27.076Z,68.07
2018-10-11T02:12:19.643Z,67.97
2018-10-11T02:17:12.334Z,68.79
2018-10-11T02:22:04.949Z,68.38
2018-10-11T02:26:57.561Z,68.80
2018-10-11T02:31:50.201Z,68.63
2018-10-11T02:36:42.828Z,68.17
2018-10-11T02:41:35.482Z,68.68
2018-10-11T02:46:28.086Z,68.78
2018-10-11T02:51:20.701Z,68.56
2018-10-11T02:56:13.394Z,68.85
2018-10-11T03:01:07.037Z,69.35
2018-10-11T03:06:00.561Z,69.07
2018-10-11T03:10:53.213Z,69.26
2018-10-11T03:15:45.865Z,69.35
2018-10-11T03:20:39.338Z,69.52
2018-10-11T03:25:32.005Z,69.41
2018-10-11T03:30:24.656Z,69.62
2018-10-11T03:35:17.278Z,69.48
2018-10-11T03:40:09.910Z,69.12
2018-10-11T03:45:02.562Z,69.87
2018-10-11T03:49:55.219Z,69.21
2018-10-11T03:54:47.795Z,69.76
2018-10-11T03:59:40.535Z,69.11
2018-10-11T04:04:33.141Z,69.39
2018-10-11T04:09:25.921Z,69.42
2018-10-11T04:14:18.658Z,68.61
2018-10-11T04:19:11.382Z,69.24
2018-10-11T04:24:03.983Z,68.45
2018-10-11T04:28:56.669Z,68.69
2018-10-11T04:33:49.309Z,69.18
2018-10-11T04:38:41.945Z,68.90
2018-10-11T04:43:34.581Z,68.96
2018-10-11T04:48:27.394Z,68.20
2018-10-11T04:53:20.031Z,68.95
2018-10-11T04:58:12.701Z,69.05
2018-10-11T05:03:06.003Z,69.12
2018-10-11T05:07:58.634Z,68.39
2018-10-11T05:12:51.369Z,68.59
2018-10-11T05:17:45.409Z,68.17
2018-10-11T05:22:38.041Z,67.94
2018-10-11T05:27:30.739Z,68.51
2018-10-11T05:37:31.319Z,67.48
2018-10-11T05:42:24.071Z,67.79
2018-10-11T05:47:16.812Z,67.86
2018-10-11T05:52:09.549Z,67.27
2018-10-11T05:57:02.242Z,67.42
2018-10-11T06:01:54.934Z,67.14
2018-10-11T06:06:48.315Z,67.55
2018-10-11T06:11:40.999Z,67.52
2018-10-11T06:16:33.825Z,67.52
2018-10-11T06:21:26.490Z,67.04
2018-10-11T06:26:19.203Z,66.79
2018-10-11T06:31:11.877Z,66.43
2018-10-11T06:36:04.621Z,66.10
2018-10-11T06:40:57.649Z,65.43
2018-10-11T06:45:50.335Z,64.88
2018-10-11T06:50:43.616Z,64.98
2018-10-11T06:55:36.273Z,64.03
2018-10-11T07:00:28.974Z,64.07
2018-10-11T07:05:21.651Z,62.96
2018-10-11T07:10:14.269Z,62.11
2018-10-11T07:15:07.019Z,62.24
2018-10-11T07:19:59.621Z,61.46
2018-10-11T07:24:52.266Z,60.36
2018-10-11T07:29:44.931Z,59.36
2018-10-11T07:34:37.738Z,58.62
2018-10-11T07:39:30.358Z,58.23
2018-10-11T07:44:23.078Z,57.86
2018-10-11T07:49:15.762Z,57.01
2018-10-11T07:54:08.602Z,56.97
2018-10-11T07:59:01.735Z,56.71
2018-10-11T08:03:54.399Z,55.00
2018-10-11T08:08:47.003Z,54.51
2018-10-11T08:13:39.689Z,54.45
2018-10-11T08:18:32.402Z,52.93
2018-10-11T08:23:25.046Z,52.85
2018-10-11T08:28:17.619Z,51.55
2018-10-11T08:33:10.332Z,51.42
2018-10-11T08:38:03.246Z,50.63
2018-10-11T08:42:55.751Z,49.50
2018-10-11T08:47:48.340Z,49.27
2018-10-11T08:52:40.984Z,48.89
2018-10-11T08:57:33.659Z,48.87
2018-10-11T09:02:26.279Z,47.92
2018-10-11T09:07:18.894Z,47.87
2018-10-11T09:12:11.501Z,47.16
2018-10-11T09:17:04.294Z,47.24
2018-10-11T09:21:56.925Z,46.53
2018-10-11T09:26:49.551Z,46.99
2018-10-11T09:31:42.309Z,46.96
2018-10-11T09:36:35.019Z,46.14
2018-10-11T09:41:27.638Z,45.81
2018-10-11T09:46:20.421Z,46.00
2018-10-11T09:51:13.061Z,45.59
2018-10-11T09:56:05.862Z,44.83
2018-10-11T10:01:04.260Z,45.11
2018-10-11T10:05:56.959Z,44.72
2018-10-11T10:10:49.681Z,44.05
2018-10-11T10:15:42.587Z,42.29
2018-10-11T10:20:35.159Z,41.33
2018-10-11T10:25:28.295Z,41.04
2018-10-11T10:30:26.457Z,40.09
2018-10-11T10:35:19.139Z,40.46
2018-10-11T10:40:11.772Z,38.99
2018-10-11T10:45:05.141Z,39.72
2018-10-11T10:49:57.822Z,39.86
2018-10-11T10:54:50.474Z,39.60
2018-10-11T10:59:43.158Z,38.51
2018-10-11T11:04:35.862Z,39.38
2018-10-11T11:09:28.587Z,37.92
2018-10-11T11:14:21.292Z,38.81
2018-10-11T11:19:14.605Z,37.87
2018-10-11T11:24:07.320Z,38.59
2018-10-11T11:29:00.118Z,38.75
2018-10-11T11:33:52.773Z,37.75
2018-10-11T11:38:45.670Z,38.39
2018-10-11T11:43:38.338Z,37.17
2018-10-11T11:48:30.981Z,36.07
2018-10-11T11:53:23.610Z,37.25
2018-10-11T11:58:16.267Z,36.09
2018-10-11T12:03:08.911Z,36.75
2018-10-11T12:08:01.660Z,35.67
2018-10-11T12:12:55.911Z,36.94
2018-10-11T12:17:48.606Z,36.85
2018-10-11T12:22:41.275Z,36.41
2018-10-11T12:27:33.905Z,35.23
2018-10-11T12:32:26.581Z,34.91
2018-10-11T12:37:19.260Z,34.92
2018-10-11T12:42:12.084Z,35.18
2018-10-11T12:47:04.754Z,34.97
2018-10-11T12:51:57.465Z,35.41
2018-10-11T12:56:50.063Z,35.96
2018-10-11T13:01:42.759Z,35.25
2018-10-11T13:06:35.538Z,34.80
2018-10-11T13:11:28.177Z,35.10
2018-10-11T13:16:20.850Z,34.28
2018-10-11T13:21:13.562Z,34.61
2018-10-11T13:26:06.191Z,34.09
2018-10-11T13:30:58.848Z,34.62
2018-10-11T13:35:51.453Z,34.33
2018-10-11T13:40:44.149Z,34.42
2018-10-11T13:45:36.828Z,33.93
2018-10-11T13:50:29.542Z,34.33
2018-10-11T13:55:22.181Z,33.39
2018-10-11T14:00:15.025Z,34.31
2018-10-11T14:05:07.749Z,33.00
2018-10-11T14:10:00.441Z,33.61
2018-10-11T14:14:53.086Z,33.44
2018-10-11T14:19:45.792Z,33.15
2018-10-11T14:24:38.419Z,32.94
2018-10-11T14:29:31.143Z,33.57
2018-10-11T14:34:23.845Z,33.27
2018-10-11T14:39:16.733Z,33.50
2018-10-11T14:44:09.374Z,33.71
2018-10-11T14:49:02.304Z,33.32
2018-10-11T14:53:58.874Z,33.35
2018-10-11T14:58:47.667Z,33.38
2018-10-11T15:03:40.317Z,32.80
2018-10-11T15:08:32.986Z,33.18
2018-10-11T15:13:25.608Z,33.64
2018-10-11T15:18:18.378Z,33.05
2018-10-11T15:23:11.079Z,33.99
2018-10-11T15:28:03.700Z,32.95
2018-10-11T15:32:56.326Z,32.83
2018-10-11T15:37:48.987Z,33.18
2018-10-11T15:42:41.678Z,33.82
2018-10-11T15:47:34.273Z,33.27
2018-10-11T15:52:26.957Z,33.90
2018-10-11T15:57:19.595Z,33.84
2018-10-11T16:02:12.297Z,33.76
2018-10-11T16:07:05.229Z,35.00
2018-10-11T16:11:57.833Z,35.33
2018-10-11T16:16:50.608Z,35.54
2018-10-11T16:21:43.170Z,34.87
2018-10-11T16:26:35.732Z,35.38
2018-10-11T16:31:28.369Z,36.04
2018-10-11T16:36:21.001Z,36.22
2018-10-11T16:41:13.717Z,36.87
2018-10-11T16:46:06.385Z,36.43
2018-10-11T16:50:58.984Z,36.45
2018-10-11T16:55:51.642Z,37.14
2018-10-11T17:00:44.289Z,38.26
2018-10-11T17:05:36.892Z,37.45
2018-10-11T17:10:29.502Z,37.75
2018-10-11T17:15:22.183Z,38.50
2018-10-11T17:20:14.834Z,39.48
2018-10-11T17:25:07.448Z,39.23
2018-10-11T17:30:00.107Z,39.96
2018-10-11T17:34:52.732Z,40.24
2018-10-11T17:39:45.353Z,41.71
2018-10-11T17:44:37.988Z,41.27
2018-10-11T17:49:30.617Z,41.91
2018-10-11T17:54:23.390Z,42.84
2018-10-11T17:59:15.981Z,42.52
2018-10-11T18:04:08.491Z,43.67
2018-10-11T18:09:01.134Z,43.49
2018-10-11T18:13:53.806Z,44.44
2018-10-11T18:18:46.377Z,44.09
2018-10-11T18:23:39.018Z,45.07
2018-10-11T18:28:31.813Z,44.79
2018-10-11T18:33:24.391Z,45.64
2018-10-11T18:38:16.987Z,45.44
2018-10-11T18:43:09.614Z,45.86
2018-10-11T18:48:02.193Z,45.49
2018-10-11T18:52:54.849Z,45.87
2018-10-11T18:57:47.499Z,45.71
2018-10-11T19:02:40.050Z,46.16
2018-10-11T19:07:32.759Z,46.39
2018-10-11T19:12:25.406Z,46.31
2018-10-11T19:17:17.894Z,46.90
2018-10-11T19:22:10.622Z,46.75
2018-10-11T19:27:03.185Z,46.29
2018-10-11T19:31:55.840Z,46.28
2018-10-11T19:36:48.426Z,46.44
2018-10-11T19:41:41.131Z,46.59
2018-10-11T19:46:33.721Z,46.48
2018-10-11T19:51:26.337Z,46.69
2018-10-11T19:56:19.054Z,47.10
2018-10-11T20:01:11.723Z,46.62
2018-10-11T20:06:04.504Z,46.72
2018-10-11T20:10:57.134Z,46.92
2018-10-11T20:15:49.754Z,47.22
2018-10-11T20:20:42.357Z,47.06
2018-10-11T20:25:35.106Z,47.64
2018-10-11T20:30:27.750Z,47.65
2018-10-11T20:35:20.770Z,47.18
2018-10-11T20:40:13.386Z,47.60
2018-10-11T20:45:06.284Z,47.65
2018-10-11T20:49:58.989Z,46.96
2018-10-11T20:54:51.646Z,47.52
2018-10-11T20:59:44.480Z,47.67
2018-10-11T21:04:37.306Z,46.91
2018-10-11T21:09:29.945Z,46.75
2018-10-11T21:14:22.646Z,47.56
2018-10-11T21:19:15.220Z,47.63
2018-10-11T21:24:07.802Z,47.16
2018-10-11T21:29:00.401Z,47.64
2018-10-11T21:33:53.070Z,47.92
2018-10-11T21:38:45.791Z,47.52
2018-10-11T21:43:38.380Z,47.81
2018-10-11T21:48:31.087Z,47.66
2018-10-11T21:53:23.721Z,47.68
2018-10-11T21:58:16.293Z,48.17
2018-10-11T22:03:08.885Z,47.44
2018-10-11T22:08:01.458Z,48.21
2018-10-11T22:12:54.305Z,47.69
2018-10-11T22:17:46.918Z,48.21
2018-10-11T22:22:43.050Z,47.51
2018-10-11T22:27:36.189Z,47.32
2018-10-11T22:32:28.773Z,47.74
2018-10-11T22:37:21.705Z,47.84
2018-10-11T22:42:14.328Z,48.38
2018-10-11T22:47:06.997Z,48.51
2018-10-11T22:51:59.581Z,48.57
2018-10-11T22:56:52.165Z,48.13
2018-10-11T23:01:44.889Z,48.38
2018-10-11T23:06:37.816Z,48.54
2018-10-11T23:11:30.698Z,48.77
2018-10-11T23:16:23.378Z,48.67
2018-10-11T23:21:15.998Z,49.05
2018-10-11T23:26:08.678Z,49.17
2018-10-11T23:31:01.332Z,49.85
2018-10-11T23:35:53.959Z,49.75
2018-10-11T23:40:46.643Z,49.95
2018-10-11T23:45:39.317Z,49.84
2018-10-11T23:50:31.950Z,49.79
2018-10-11T23:55:24.616Z,50.64
